Airfield :
LOGIN :

Register | Disclaimer

   EN    FR    IT 

 










Legend :    VFR   Marginal VFR   IFR   Intensive IFR   Very Intensive IFR
Visi :
Ceiling :
>= 8 km
>= 3000ft
5 to 8 km
1000 to 3000 ft
1500m to 5 km
500 to 1000 ft
800 to 1500m
200 to 500 ft
< 800m
< 200 ft
Symbols :   Thunderstorms  Fog  Heavy snow  Heavy precipitations  Wind > 20 kt
SIGMETs :     Misc.  Thunderstorms  Icing  Turbulence  Mountain Waves  Volcanic Ashes






- Airport Elevation : 1455 ft


ETIH - Hohenfels Army Air Field

CURRENT METAR :
  • 070145Z AUTO 19004KT 9999 -RA BKN029 BKN038 03/01 A2989 RMK AO2 RAE00RAB05E13RAB14E34RAB44 CIG 029V039 SLP145 $

EXPIRED METARs :
  • 070134Z AUTO 21005KT 9999 FEW031 BKN039 02/01 A2989 RMK AO2 RAE00RAB05E13RAB14E34 SLP145 $
  • 070114Z AUTO 00000KT 9999 -RA FEW034 02/00 A2990 RMK AO2 RAE00RAB05E13RAB14 SLP149 $
  • 070105Z AUTO 19003KT 9999 -RA FEW034 02/00 A2990 RMK AO2 RAE00RAB05 SLP149 $
  • 070052Z AUTO 20005KT 9999 -RA FEW028 SCT035 01/00 A2990 RMK AO2 RAE2357FZRAB2357E00RAB00E04FZRAB04E05RAB05E07FZRAB07E08RAB08E14FZRAB14E26RAB26E44RAB52 SLP151 $
  • 070044Z AUTO 00000KT 9999 FEW028 SCT035 01/00 A2990 RMK AO2 RAE2357FZRAB2357E00RAB00E04FZRAB04E05RAB05E07FZRAB07E08RAB08E14FZRAB14E26RAB26E44 SLP151 $
  • 070026Z AUTO 00000KT 8000 RA BR OVC031 01/M01 A2991 RMK AO2 RAE2357FZRAB2357E00RAB00E04FZRAB04E05RAB05E07FZRAB07E08RAB08E14FZRAB14E26RAB26 SLP154 $
  • 070014Z AUTO 00000KT 8000 FZRA BR OVC031 01/M01 A2991 RMK AO2 RAE2357FZRAB2357E00RAB00E04FZRAB04E05RAB05E07FZRAB07E08RAB08E14FZRAB14 SLP154 $
  • 070005Z AUTO 00000KT 9000 RA BR OVC031 01/M01 A2992 RMK AO2 RAE2357FZRAB2357E00RAB00E04FZRAB04E05RAB05 SLP157 $
  • 062356Z AUTO 00000KT 9000 +RA BR BKN031 00/M01 A2992 RMK AO2 FZRAE44RAB44E45FZRAB45E51RAB51 SLP157 P0007 60007 T00041011 10004 21026 57016 $
  • 062345Z AUTO 00000KT 8000 FZRA BR BKN031 00/M01 A2993 RMK AO2 FZRAE44RAB44E45FZRAB45 SLP161 $
  • 062314Z AUTO 00000KT 9000 FZRA BR CLR M01/M02 A2994 RMK AO2 SLP167 $
  • 062259Z AUTO 00000KT 9000 -FZRA BR FEW038 SCT060 M01/M03 A2994 RMK AO2 SLP167 $
  • 062257Z AUTO 13003KT 9000 FZRA BR FEW038 SCT060 M02/M03 A2994 RMK AO2 SLP169 $
  • 062256Z AUTO 12003KT 9000 -FZRA BR FEW038 SCT060 M02/M03 A2995 RMK AO2 UPB39E45FZRAB45 SLP172 P0000 T10161029 410051041 $

Expired Forecast.



MET'MAP, your aeronautical weather chart ! - Copyright ORBIFLY December 2007 - Disclaimer

ORBIFLY MET'MAP TEAM :

Programming & Development : Alexandra Zaïnal
Concept & original design : Baudouin d'Aumeries
Assistance for programming : Marc-Olivier Méhu
Technical & hardware support : Manuel Goepfert

Contact : metmap@orbifly.com




SOURCES & CREDITS :

   NOAA